createdAt,value
2022-11-25T00:01:52.233Z,28.52
2022-11-25T00:04:21.460Z,30.57
2022-11-25T00:06:50.900Z,29.27
2022-11-25T00:09:20.105Z,28.77
2022-11-25T00:11:49.480Z,27.40
2022-11-25T00:14:18.699Z,31.33
2022-11-25T00:16:48.948Z,38.40
2022-11-25T00:19:18.775Z,30.70
2022-11-25T00:21:48.334Z,36.63
2022-11-25T00:24:17.824Z,26.85
2022-11-25T00:26:47.356Z,28.62
2022-11-25T00:29:16.569Z,35.25
2022-11-25T00:31:45.976Z,30.80
2022-11-25T00:34:16.210Z,28.45
2022-11-25T00:36:45.545Z,32.78
2022-11-25T00:39:17.163Z,28.57
2022-11-25T00:42:05.180Z,28.83
2022-11-25T00:44:38.620Z,28.57
2022-11-25T00:47:20.054Z,32.90
2022-11-25T00:49:51.358Z,29.05
2022-11-25T00:52:23.813Z,25.05
2022-11-25T00:54:53.543Z,27.48
2022-11-25T00:57:24.867Z,34.50
2022-11-25T00:59:54.684Z,32.53
2022-11-25T01:02:24.578Z,31.95
2022-11-25T01:04:53.988Z,29.98
2022-11-25T01:07:23.453Z,32.65
2022-11-25T01:09:52.793Z,34.15
2022-11-25T01:12:22.118Z,34.98
2022-11-25T01:14:53.026Z,35.03
2022-11-25T01:17:22.359Z,31.40
2022-11-25T01:19:51.854Z,32.17
2022-11-25T01:22:21.812Z,32.08
2022-11-25T01:24:51.047Z,29.72
2022-11-25T01:27:21.640Z,25.85
2022-11-25T01:29:51.074Z,35.17
2022-11-25T01:32:20.279Z,35.35
2022-11-25T01:34:49.605Z,36.48
2022-11-25T01:37:18.822Z,37.23
2022-11-25T01:39:48.064Z,34.05
2022-11-25T01:42:18.802Z,31.77
2022-11-25T01:44:51.311Z,30.77
2022-11-25T01:47:24.401Z,35.30
2022-11-25T01:50:05.025Z,39.45
2022-11-25T01:52:39.698Z,33.92
2022-11-25T01:55:11.555Z,30.65
2022-11-25T01:57:47.362Z,34.03
2022-11-25T02:00:17.380Z,36.17
2022-11-25T02:02:47.205Z,32.30
2022-11-25T02:05:19.267Z,29.65
2022-11-25T02:07:51.496Z,31.07
2022-11-25T02:10:26.818Z,26.37
2022-11-25T02:12:56.454Z,24.67
2022-11-25T02:15:25.724Z,23.87
2022-11-25T02:17:55.173Z,14.65
2022-11-25T02:20:25.285Z,20.17
2022-11-25T02:23:01.583Z,19.67
2022-11-25T02:25:35.671Z,21.95
2022-11-25T02:28:12.574Z,16.85
2022-11-25T02:30:42.165Z,17.90
2022-11-25T02:33:11.765Z,13.85
2022-11-25T02:35:48.990Z,12.53
2022-11-25T02:38:28.938Z,12.28
2022-11-25T02:41:16.295Z,9.85
2022-11-25T02:43:47.549Z,12.18
2022-11-25T02:46:22.576Z,10.93
2022-11-25T02:49:08.291Z,11.00
2022-11-25T02:51:26.009Z,12.30
2022-11-25T02:53:56.725Z,11.45
2022-11-25T02:56:29.464Z,13.45
2022-11-25T02:59:00.155Z,7.90
2022-11-25T03:01:31.742Z,10.13
2022-11-25T03:04:01.227Z,13.58
2022-11-25T03:06:31.477Z,14.33
2022-11-25T03:09:00.765Z,9.85
2022-11-25T03:11:31.807Z,10.80
2022-11-25T03:14:01.393Z,12.70
2022-11-25T03:16:30.735Z,9.98
2022-11-25T03:19:00.028Z,11.57
2022-11-25T03:21:29.266Z,8.95
2022-11-25T03:23:58.847Z,8.70
2022-11-25T03:26:28.194Z,7.90
2022-11-25T03:28:58.074Z,8.55
2022-11-25T03:31:27.517Z,8.03
2022-11-25T03:33:57.393Z,9.50
2022-11-25T03:36:26.830Z,8.03
2022-11-25T03:38:56.162Z,10.25
2022-11-25T03:41:25.399Z,13.15
2022-11-25T03:43:54.926Z,10.40
2022-11-25T03:46:24.815Z,15.03
2022-11-25T03:48:55.918Z,11.22
2022-11-25T03:51:25.965Z,9.80
2022-11-25T03:53:55.889Z,7.95
2022-11-25T03:56:25.483Z,7.33
2022-11-25T03:58:54.881Z,7.70
2022-11-25T04:01:24.576Z,8.10
2022-11-25T04:03:54.222Z,9.00
2022-11-25T04:06:24.124Z,6.22
2022-11-25T04:08:54.283Z,4.45
2022-11-25T04:11:25.569Z,6.62
2022-11-25T04:13:55.447Z,7.03
2022-11-25T04:16:26.402Z,6.50
2022-11-25T04:18:56.387Z,6.37
2022-11-25T04:21:25.728Z,6.03
2022-11-25T04:23:55.253Z,6.53
2022-11-25T04:26:24.608Z,6.83
2022-11-25T04:28:53.892Z,5.60
2022-11-25T04:31:23.536Z,5.22
2022-11-25T04:33:52.987Z,5.03
2022-11-25T04:36:23.533Z,6.80
2022-11-25T04:38:53.512Z,6.37
2022-11-25T04:41:24.235Z,3.65
2022-11-25T04:43:53.650Z,5.55
2022-11-25T04:46:26.390Z,4.47
2022-11-25T04:48:56.644Z,8.28
2022-11-25T04:51:26.055Z,8.20
2022-11-25T04:53:57.076Z,8.60
2022-11-25T04:56:26.560Z,5.12
2022-11-25T04:59:14.463Z,5.67
2022-11-25T05:01:45.550Z,7.78
2022-11-25T05:04:29.126Z,10.08
2022-11-25T05:06:58.475Z,8.15
2022-11-25T05:09:28.015Z,10.55
2022-11-25T05:12:05.978Z,6.08
2022-11-25T05:14:36.138Z,13.55
2022-11-25T05:17:06.745Z,7.42
2022-11-25T05:19:36.820Z,11.03
2022-11-25T05:22:06.743Z,13.48
2022-11-25T05:24:36.652Z,11.73
2022-11-25T05:27:06.791Z,12.78
2022-11-25T05:29:36.250Z,13.32
2022-11-25T05:32:06.477Z,14.90
2022-11-25T05:34:36.075Z,11.80
2022-11-25T05:37:07.611Z,10.78
2022-11-25T05:39:37.745Z,13.40
2022-11-25T05:42:11.532Z,9.45
2022-11-25T05:44:41.387Z,10.78
2022-11-25T05:47:10.849Z,11.97
2022-11-25T05:49:41.030Z,11.35
2022-11-25T05:52:10.331Z,12.15
2022-11-25T05:54:41.263Z,15.85
2022-11-25T05:57:10.654Z,14.30
2022-11-25T05:59:44.871Z,13.18
2022-11-25T06:02:15.905Z,14.47
2022-11-25T06:04:45.395Z,12.73
2022-11-25T06:07:14.676Z,16.07
2022-11-25T06:09:44.179Z,13.48
2022-11-25T06:12:13.965Z,10.18
2022-11-25T06:14:44.931Z,13.05
2022-11-25T06:17:14.235Z,15.20
2022-11-25T06:19:48.496Z,10.43
2022-11-25T06:22:17.913Z,15.45
2022-11-25T06:24:52.942Z,16.87
2022-11-25T06:27:18.674Z,14.68
2022-11-25T06:29:48.052Z,16.27
2022-11-25T06:32:17.468Z,14.13
2022-11-25T06:35:00.361Z,16.75
2022-11-25T06:37:37.666Z,17.02
2022-11-25T06:40:09.162Z,16.40
2022-11-25T06:42:39.350Z,16.02
2022-11-25T06:45:09.609Z,15.00
2022-11-25T06:47:39.088Z,15.98
2022-11-25T06:50:08.950Z,17.17
2022-11-25T06:52:38.825Z,17.02
2022-11-25T06:55:08.650Z,15.15
2022-11-25T06:57:37.948Z,17.45
2022-11-25T07:00:08.428Z,17.92
2022-11-25T07:02:41.915Z,16.42
2022-11-25T07:05:09.050Z,15.85
2022-11-25T07:07:38.511Z,15.40
2022-11-25T07:10:08.969Z,15.65
2022-11-25T07:12:38.231Z,25.60
2022-11-25T07:15:08.394Z,14.28
2022-11-25T07:17:37.845Z,15.88
2022-11-25T07:20:08.591Z,16.77
2022-11-25T07:22:37.833Z,14.28
2022-11-25T07:25:09.459Z,21.20
2022-11-25T07:27:38.849Z,16.65
2022-11-25T07:32:40.032Z,17.48
2022-11-25T07:35:09.780Z,17.48
2022-11-25T07:37:39.227Z,22.50
2022-11-25T07:40:09.493Z,22.13
2022-11-25T07:42:38.966Z,18.07
2022-11-25T07:45:10.543Z,21.37
2022-11-25T07:47:41.473Z,17.62
2022-11-25T07:50:11.038Z,16.97
2022-11-25T07:52:41.180Z,17.27
2022-11-25T07:55:10.884Z,14.85
2022-11-25T07:57:40.213Z,24.32
2022-11-25T08:00:10.681Z,23.95
2022-11-25T08:02:42.706Z,19.30
2022-11-25T08:05:12.222Z,19.35
2022-11-25T08:07:41.513Z,18.42
2022-11-25T08:10:11.630Z,14.90
2022-11-25T08:12:40.876Z,13.05
2022-11-25T08:15:10.810Z,16.45
2022-11-25T08:17:40.009Z,15.32
2022-11-25T08:20:10.203Z,17.23
2022-11-25T08:22:39.555Z,21.55
2022-11-25T08:25:09.319Z,15.68
2022-11-25T08:27:38.615Z,17.50
2022-11-25T08:30:08.915Z,14.20
2022-11-25T08:32:39.346Z,15.60
2022-11-25T08:35:09.246Z,14.47
2022-11-25T08:37:38.520Z,17.12
2022-11-25T08:40:08.974Z,14.80
2022-11-25T08:42:39.504Z,16.95
2022-11-25T08:45:09.882Z,18.23
2022-11-25T08:47:39.178Z,16.12
2022-11-25T08:50:10.789Z,23.47
2022-11-25T08:52:40.204Z,15.35
2022-11-25T08:55:09.815Z,22.07
2022-11-25T08:57:39.284Z,14.95
2022-11-25T09:00:09.806Z,16.97
2022-11-25T09:02:39.063Z,21.95
2022-11-25T09:05:08.556Z,18.65
2022-11-25T09:07:38.023Z,18.20
2022-11-25T09:10:10.368Z,19.57
2022-11-25T09:12:39.628Z,19.17
2022-11-25T09:15:10.077Z,21.02
2022-11-25T09:17:39.372Z,19.52
2022-11-25T09:20:09.293Z,16.05
2022-11-25T09:22:38.515Z,19.73
2022-11-25T09:25:08.700Z,18.20
2022-11-25T09:27:37.922Z,18.02
2022-11-25T09:30:08.252Z,16.65
2022-11-25T09:32:37.499Z,18.70
2022-11-25T09:35:07.153Z,14.20
2022-11-25T09:37:36.647Z,16.60
2022-11-25T09:40:07.972Z,14.07
2022-11-25T09:43:14.383Z,13.93
2022-11-25T09:46:19.827Z,17.67
2022-11-25T09:49:13.927Z,13.90
2022-11-25T09:52:01.484Z,11.88
2022-11-25T09:54:43.079Z,10.70
2022-11-25T09:57:23.104Z,13.85
2022-11-25T10:00:04.460Z,12.30
2022-11-25T10:02:41.027Z,8.43
2022-11-25T10:05:44.136Z,11.90
2022-11-25T10:08:22.501Z,12.23
2022-11-25T10:11:03.647Z,9.55
2022-11-25T10:13:44.938Z,10.70
2022-11-25T10:16:17.425Z,8.50
2022-11-25T10:18:49.903Z,13.50
2022-11-25T10:21:19.128Z,9.55
2022-11-25T10:23:48.444Z,10.82
2022-11-25T10:26:20.822Z,8.50
2022-11-25T10:28:56.657Z,10.13
2022-11-25T10:31:35.270Z,9.88
2022-11-25T10:34:07.811Z,13.50
2022-11-25T10:36:39.343Z,7.87
2022-11-25T10:39:29.962Z,11.80
2022-11-25T10:42:07.201Z,7.92
2022-11-25T10:44:38.945Z,9.60
2022-11-25T10:47:20.375Z,9.75
2022-11-25T10:50:09.752Z,8.50
2022-11-25T10:52:47.853Z,7.35
2022-11-25T10:55:20.248Z,8.78
2022-11-25T10:57:49.449Z,7.75
2022-11-25T11:00:37.804Z,10.05
2022-11-25T11:03:19.126Z,7.78
2022-11-25T11:05:51.302Z,8.28
2022-11-25T11:08:25.977Z,8.23
2022-11-25T11:11:18.273Z,11.85
2022-11-25T11:13:48.650Z,9.10
2022-11-25T11:16:29.671Z,10.32
2022-11-25T11:18:59.263Z,7.50
2022-11-25T11:21:34.807Z,11.60
2022-11-25T11:24:06.921Z,10.15
2022-11-25T11:26:37.265Z,10.43
2022-11-25T11:29:13.976Z,12.20
2022-11-25T11:31:43.134Z,11.43
2022-11-25T11:34:21.636Z,11.22
2022-11-25T11:37:17.303Z,12.25
2022-11-25T11:40:06.444Z,15.08
2022-11-25T11:42:50.546Z,12.95
2022-11-25T11:45:48.152Z,15.28
2022-11-25T11:48:42.211Z,15.68
2022-11-25T11:51:14.794Z,17.92
2022-11-25T11:56:36.904Z,13.43
2022-11-25T11:59:23.952Z,16.77
2022-11-25T12:02:08.671Z,16.48
2022-11-25T12:04:44.200Z,14.87
2022-11-25T12:07:23.020Z,14.50
2022-11-25T12:09:55.549Z,15.08
2022-11-25T12:12:28.151Z,13.55
2022-11-25T12:17:30.979Z,16.30
2022-11-25T12:22:45.366Z,18.37
2022-11-25T12:25:29.749Z,12.40
2022-11-25T12:28:11.334Z,17.45
2022-11-25T12:31:05.572Z,18.32
2022-11-25T12:33:52.913Z,13.90
2022-11-25T12:36:39.217Z,14.93
2022-11-25T12:39:36.639Z,16.07
2022-11-25T12:42:09.231Z,16.30
2022-11-25T12:47:21.855Z,19.50
2022-11-25T12:49:53.205Z,20.15
2022-11-25T12:52:34.545Z,17.05
2022-11-25T12:55:19.319Z,16.27
2022-11-25T12:57:51.933Z,17.90
2022-11-25T13:03:15.684Z,21.93
2022-11-25T13:06:12.647Z,17.60
2022-11-25T13:08:48.106Z,19.15
2022-11-25T13:11:36.038Z,22.15
2022-11-25T13:14:18.012Z,19.15
2022-11-25T13:16:49.678Z,16.10
2022-11-25T13:19:20.155Z,21.05
2022-11-25T13:22:06.469Z,18.57
2022-11-25T13:24:43.269Z,19.82
2022-11-25T13:27:36.077Z,19.48
2022-11-25T13:30:07.457Z,21.25
2022-11-25T13:32:40.655Z,19.23
2022-11-25T13:35:33.299Z,22.15
2022-11-25T13:38:04.501Z,18.82
2022-11-25T13:40:37.462Z,19.17
2022-11-25T13:43:09.081Z,18.67
2022-11-25T13:45:40.609Z,22.25
2022-11-25T13:48:22.038Z,23.25
2022-11-25T13:51:10.833Z,22.40
2022-11-25T13:53:29.704Z,27.13
2022-11-25T13:56:23.504Z,19.00
2022-11-25T13:59:13.764Z,19.10
2022-11-25T14:01:49.119Z,21.35
2022-11-25T14:04:21.811Z,23.80
2022-11-25T14:09:37.873Z,22.30
2022-11-25T14:12:36.285Z,23.40
2022-11-25T14:15:30.043Z,20.05
2022-11-25T14:18:17.795Z,18.25
2022-11-25T14:20:52.772Z,25.27
2022-11-25T14:23:44.817Z,21.12
2022-11-25T14:26:42.189Z,22.93
2022-11-25T14:29:03.667Z,21.15
2022-11-25T14:31:38.937Z,22.65
2022-11-25T14:34:23.538Z,23.65
2022-11-25T14:37:08.115Z,23.40
2022-11-25T14:39:40.589Z,20.27
2022-11-25T14:42:13.696Z,27.27
2022-11-25T14:44:51.199Z,20.40
2022-11-25T14:47:28.682Z,16.40
2022-11-25T14:52:36.995Z,38.67
2022-11-25T14:55:07.711Z,38.67
2022-11-25T14:57:42.070Z,34.92
2022-11-25T15:00:15.550Z,37.10
2022-11-25T15:02:59.404Z,23.83
2022-11-25T15:05:34.403Z,36.40
2022-11-25T15:08:06.836Z,31.80
2022-11-25T15:10:45.702Z,25.68
2022-11-25T15:13:33.122Z,28.20
2022-11-25T15:16:14.199Z,26.00
2022-11-25T15:18:52.025Z,27.45
2022-11-25T15:21:24.169Z,28.60
2022-11-25T15:23:53.762Z,25.72
2022-11-25T15:26:29.093Z,29.32
2022-11-25T15:29:00.980Z,45.90
2022-11-25T15:31:33.550Z,47.90
2022-11-25T15:34:05.128Z,27.52
2022-11-25T15:36:35.877Z,44.13
2022-11-25T15:39:20.170Z,36.42
2022-11-25T15:41:51.268Z,31.20
2022-11-25T15:44:23.630Z,33.45
2022-11-25T15:47:15.584Z,32.28
2022-11-25T15:49:50.338Z,45.85
2022-11-25T15:52:21.204Z,33.28
2022-11-25T15:54:52.120Z,35.55
2022-11-25T15:57:24.136Z,35.17
2022-11-25T15:59:59.800Z,43.30
2022-11-25T16:02:45.177Z,39.70
2022-11-25T16:05:18.132Z,30.32
2022-11-25T16:07:56.648Z,42.03
2022-11-25T16:10:34.614Z,32.55
2022-11-25T16:13:29.449Z,31.87
2022-11-25T16:16:11.123Z,41.70
2022-11-25T16:18:58.717Z,44.30
2022-11-25T16:21:31.569Z,47.60
2022-11-25T16:24:19.346Z,39.75
2022-11-25T16:26:54.455Z,33.90
2022-11-25T16:29:29.601Z,35.80
2022-11-25T16:32:00.214Z,36.73
2022-11-25T16:34:30.741Z,35.98
2022-11-25T16:36:59.963Z,31.60
2022-11-25T16:39:29.348Z,37.83
2022-11-25T16:42:01.658Z,40.88
2022-11-25T16:44:32.032Z,46.75
2022-11-25T16:47:02.148Z,42.48
2022-11-25T16:49:32.020Z,40.83
2022-11-25T16:52:01.359Z,40.88
2022-11-25T16:54:31.599Z,33.78
2022-11-25T16:57:01.062Z,39.83
2022-11-25T16:59:33.782Z,35.17
2022-11-25T17:02:05.464Z,30.37
2022-11-25T17:04:34.910Z,37.57
2022-11-25T17:09:37.570Z,32.90
2022-11-25T17:12:08.728Z,40.28
2022-11-25T17:14:38.513Z,36.85
2022-11-25T17:17:08.939Z,37.25
2022-11-25T17:19:38.529Z,40.50
2022-11-25T17:22:26.162Z,34.65
2022-11-25T17:24:57.742Z,36.70
2022-11-25T17:27:30.493Z,34.98
2022-11-25T17:30:02.378Z,32.75
2022-11-25T17:32:33.124Z,27.37
2022-11-25T17:35:02.515Z,33.83
2022-11-25T17:37:32.702Z,33.58
2022-11-25T17:40:02.074Z,30.55
2022-11-25T17:42:34.345Z,32.20
2022-11-25T17:47:32.910Z,30.55
2022-11-25T17:50:02.677Z,32.13
2022-11-25T17:52:31.890Z,35.95
2022-11-25T17:55:01.445Z,31.60
2022-11-25T17:57:30.912Z,43.10
2022-11-25T18:00:00.633Z,43.30
2022-11-25T18:02:30.224Z,38.38
2022-11-25T18:04:59.956Z,34.25
2022-11-25T18:07:29.527Z,31.77
2022-11-25T18:09:58.838Z,30.68
2022-11-25T18:12:30.745Z,32.70
2022-11-25T18:15:01.979Z,36.90
2022-11-25T18:17:31.442Z,35.75
2022-11-25T18:20:00.882Z,29.60
2022-11-25T18:22:30.896Z,36.10
2022-11-25T18:25:03.162Z,30.97
2022-11-25T18:27:32.265Z,30.92
2022-11-25T18:30:02.634Z,39.58
2022-11-25T18:32:31.864Z,40.05
2022-11-25T18:35:01.186Z,33.35
2022-11-25T18:37:30.536Z,40.92
2022-11-25T18:39:59.886Z,37.03
2022-11-25T18:42:29.348Z,41.00
2022-11-25T18:44:58.992Z,36.80
2022-11-25T18:47:28.429Z,40.75
2022-11-25T18:49:57.907Z,42.40
2022-11-25T18:52:27.420Z,47.75
2022-11-25T18:54:56.722Z,37.45
2022-11-25T18:57:26.116Z,33.05
2022-11-25T19:00:17.265Z,37.78
2022-11-25T19:02:26.581Z,40.10
2022-11-25T19:04:55.920Z,39.67
2022-11-25T19:07:25.811Z,36.05
2022-11-25T19:09:55.414Z,38.35
2022-11-25T19:12:24.698Z,31.40
2022-11-25T19:14:55.755Z,35.85
2022-11-25T19:17:26.095Z,35.55
2022-11-25T19:19:55.766Z,33.13
2022-11-25T19:22:25.198Z,38.70
2022-11-25T19:24:56.110Z,35.83
2022-11-25T19:27:26.592Z,36.55
2022-11-25T19:29:56.292Z,47.98
2022-11-25T19:32:27.873Z,43.23
2022-11-25T19:35:00.649Z,55.83
2022-11-25T19:37:31.659Z,49.42
2022-11-25T19:40:02.896Z,58.70
2022-11-25T19:42:32.298Z,48.13
2022-11-25T19:45:03.595Z,61.70
2022-11-25T19:47:32.839Z,47.35
2022-11-25T19:50:03.112Z,53.75
2022-11-25T19:52:35.918Z,49.55
2022-11-25T19:55:16.948Z,60.10
2022-11-25T19:57:46.853Z,73.55
2022-11-25T20:00:17.737Z,90.32
2022-11-25T20:02:49.202Z,139.15
2022-11-25T20:05:36.225Z,129.57
2022-11-25T20:08:06.212Z,58.28
2022-11-25T20:10:35.489Z,46.00
2022-11-25T20:13:07.224Z,41.48
2022-11-25T20:15:37.744Z,38.83
2022-11-25T20:18:11.586Z,48.75
2022-11-25T20:20:41.415Z,42.45
2022-11-25T20:23:28.287Z,43.50
2022-11-25T20:25:57.652Z,42.62
2022-11-25T20:28:31.360Z,35.90
2022-11-25T20:31:00.983Z,46.80
2022-11-25T20:33:30.326Z,38.85
2022-11-25T20:36:02.899Z,43.17
2022-11-25T20:41:02.047Z,45.52
2022-11-25T20:43:33.674Z,40.73
2022-11-25T20:46:04.002Z,56.03
2022-11-25T20:48:35.325Z,49.18
2022-11-25T20:51:06.772Z,42.73
2022-11-25T20:53:36.717Z,48.98
2022-11-25T20:56:06.625Z,44.25
2022-11-25T20:58:37.394Z,39.27
2022-11-25T21:01:07.856Z,42.00
2022-11-25T21:03:37.606Z,41.35
2022-11-25T21:06:10.163Z,49.98
2022-11-25T21:11:08.223Z,37.80
2022-11-25T21:13:37.913Z,41.70
2022-11-25T21:16:07.467Z,36.50
2022-11-25T21:18:37.088Z,37.93
2022-11-25T21:21:09.488Z,33.10
2022-11-25T21:23:39.581Z,41.77
2022-11-25T21:26:14.460Z,38.50
2022-11-25T21:28:45.101Z,47.80
2022-11-25T21:31:22.690Z,44.35
2022-11-25T21:33:54.206Z,38.98
2022-11-25T21:36:26.905Z,37.53
2022-11-25T21:39:05.324Z,47.23
2022-11-25T21:41:35.538Z,41.98
2022-11-25T21:44:06.667Z,34.65
2022-11-25T21:46:36.145Z,42.17
2022-11-25T21:49:11.360Z,42.40
2022-11-25T21:51:41.223Z,48.60
2022-11-25T21:54:11.611Z,45.15
2022-11-25T21:56:41.129Z,47.93
2022-11-25T21:59:13.844Z,40.15
2022-11-25T22:01:43.269Z,38.48
2022-11-25T22:04:17.767Z,33.18
2022-11-25T22:06:48.112Z,36.30
2022-11-25T22:09:17.944Z,38.48
2022-11-25T22:11:52.993Z,41.50
2022-11-25T22:14:26.846Z,39.42
2022-11-25T22:16:57.685Z,41.40
2022-11-25T22:19:29.053Z,44.23
2022-11-25T22:22:00.056Z,47.45
2022-11-25T22:24:30.599Z,39.35
2022-11-25T22:26:59.937Z,34.33
2022-11-25T22:29:31.847Z,50.50
2022-11-25T22:32:01.291Z,48.50
2022-11-25T22:34:30.829Z,44.18
2022-11-25T22:37:00.140Z,41.40
2022-11-25T22:39:29.547Z,44.30
2022-11-25T22:42:05.097Z,39.08
2022-11-25T22:44:37.106Z,43.85
2022-11-25T22:47:07.602Z,41.92
2022-11-25T22:49:44.368Z,39.35
2022-11-25T22:52:25.322Z,47.65
2022-11-25T22:54:54.815Z,41.30
2022-11-25T22:57:24.175Z,48.78
2022-11-25T22:59:53.573Z,41.95
2022-11-25T23:02:28.834Z,44.98
2022-11-25T23:04:58.378Z,44.95
2022-11-25T23:07:27.711Z,36.90
2022-11-25T23:09:57.175Z,49.00
2022-11-25T23:12:26.410Z,46.05
2022-11-25T23:14:55.671Z,47.65
2022-11-25T23:17:26.830Z,44.77
2022-11-25T23:19:56.223Z,46.80
2022-11-25T23:22:25.451Z,43.98
2022-11-25T23:24:54.806Z,49.45
2022-11-25T23:27:24.070Z,57.70
2022-11-25T23:29:53.312Z,48.02
2022-11-25T23:32:22.559Z,44.55
2022-11-25T23:34:52.168Z,46.18
2022-11-25T23:37:21.466Z,49.27
2022-11-25T23:39:52.902Z,49.40
2022-11-25T23:42:22.145Z,56.65
2022-11-25T23:44:51.374Z,47.53
2022-11-25T23:47:23.127Z,51.77
2022-11-25T23:49:53.527Z,48.65
2022-11-25T23:52:27.210Z,53.23
2022-11-25T23:54:56.832Z,55.65
2022-11-25T23:57:29.304Z,52.50
2022-11-25T23:59:58.693Z,50.15
